Time;durP1;ratioP1;P1;durP2;ratioP2;P2;SDS_P1;SDS_P2;PMS_P1;PMS_P2;Temp;Humidity;BMP_temperature;BMP_pressure;BME280_temperature;BME280_humidity;BME280_pressure;Samples;Min_cycle;Max_cycle;Signal;HPM_P1;HPM_P2
2022/05/01 00:00:32;;;;;;;14.93;10.30;;;13.60;91.70;;;12.91;59.00;99166.53;4961471;28;122960;-90
2022/05/01 00:03:01;;;;;;;15.20;10.70;;;12.30;91.10;;;12.90;58.95;99170.47;4962621;28;113609;-91
2022/05/01 00:05:28;;;;;;;15.90;11.47;;;12.30;91.10;;;12.90;59.10;99166.88;4965450;28;112305;-92
2022/05/01 00:07:55;;;;;;;12.43;10.93;;;12.30;91.10;;;12.87;58.99;99159.16;4961332;28;123997;-91
2022/05/01 00:10:21;;;;;;;13.47;10.70;;;12.30;91.20;;;12.87;59.29;99156.41;4962677;28;124310;-90
2022/05/01 00:12:48;;;;;;;13.53;11.00;;;12.30;91.20;;;12.86;59.27;99163.91;4964350;28;113527;-91
2022/05/01 00:15:14;;;;;;;15.63;10.87;;;12.30;91.20;;;12.85;59.10;99161.47;4970165;28;113419;-91
2022/05/01 00:17:41;;;;;;;16.70;12.20;;;12.30;91.20;;;12.79;58.98;99158.84;4971988;28;123681;-91
2022/05/01 00:20:09;;;;;;;15.93;12.27;;;12.20;91.20;;;12.75;59.24;99159.78;4972188;28;122895;-91
2022/05/01 00:22:35;;;;;;;16.47;12.80;;;12.20;91.20;;;12.74;59.15;99158.16;4970203;28;115855;-91
2022/05/01 00:25:04;;;;;;;16.23;12.90;;;12.20;91.30;;;12.70;59.31;99146.84;4968644;28;113623;-90
2022/05/01 00:27:31;;;;;;;14.40;11.50;;;12.20;91.30;;;12.68;59.36;99153.84;4970041;28;123010;-90
2022/05/01 00:29:59;;;;;;;17.87;13.70;;;12.10;91.20;;;12.66;59.71;99150.59;4976112;28;123262;-91
2022/05/01 00:32:26;;;;;;;16.63;12.77;;;12.10;91.30;;;12.65;59.46;99158.06;4960460;28;114558;-90
2022/05/01 00:37:45;;;;;;;14.80;11.87;;;12.10;91.40;;;12.69;59.72;99148.00;4951227;28;123597;-90
2022/05/01 00:40:12;;;;;;;15.10;12.00;;;12.10;91.40;;;12.72;59.40;99154.88;4979060;28;123592;-89
2022/05/01 00:42:39;;;;;;;15.30;11.53;;;12.10;91.40;;;12.73;59.32;99150.94;4985943;28;112594;-90
2022/05/01 00:45:07;;;;;;;16.33;12.70;;;12.10;91.40;;;12.72;59.49;99152.91;4978105;28;113707;-92
2022/05/01 00:47:33;;;;;;;15.57;10.23;;;12.10;91.40;;;12.69;59.44;99159.09;4975253;28;124322;-91
2022/05/01 00:50:00;;;;;;;15.30;12.60;;;12.10;91.40;;;12.69;59.86;99153.56;4977134;28;123480;-91
2022/05/01 00:52:26;;;;;;;17.00;12.43;;;12.10;91.40;;;12.71;59.52;99151.28;4975007;28;114318;-91
2022/05/01 00:58:37;;;;;;;17.77;13.13;;;12.10;91.50;;;12.71;59.39;99153.25;4984675;28;125098;-93
2022/05/01 01:04:45;;;;;;;20.20;13.17;;;12.10;91.60;;;12.69;59.67;99147.19;4987074;28;115414;-94
2022/05/01 01:08:11;;;;;;;18.23;13.33;;;12.10;91.70;;;12.65;59.75;99141.44;4983317;28;113872;-93
2022/05/01 01:10:39;;;;;;;20.43;14.20;;;12.10;91.50;;;12.64;59.65;99150.09;4981431;28;124643;-92
2022/05/01 01:13:06;;;;;;;17.83;13.27;;;12.10;91.60;;;12.66;59.59;99147.84;4982002;28;122921;-94
2022/05/01 01:15:34;;;;;;;16.30;12.80;;;12.10;91.50;;;12.69;59.79;99147.19;4967172;28;113562;-92
2022/05/01 01:18:00;;;;;;;15.60;12.20;;;12.10;91.50;;;12.70;59.96;99143.28;4966373;28;113444;-94
2022/05/01 01:20:46;;;;;;;14.80;12.20;;;12.10;91.50;;;12.70;59.72;99137.72;4963179;28;124100;-93
2022/05/01 01:23:14;;;;;;;17.83;12.73;;;12.10;91.50;;;12.70;59.69;99141.31;4959715;28;123268;-93
2022/05/01 01:26:19;;;;;;;18.77;13.73;;;12.10;91.50;;;12.70;59.70;99130.22;4960454;28;113634;-93
2022/05/01 01:32:09;;;;;;;18.63;13.07;;;12.10;91.60;;;12.71;59.57;99144.94;4982294;28;127013;-94
2022/05/01 01:34:37;;;;;;;16.17;11.70;;;12.10;91.60;;;12.72;59.69;99139.06;4965158;28;122928;-93
2022/05/01 01:40:55;;;;;;;16.10;12.40;;;12.10;91.50;;;12.74;59.51;99133.19;4999012;28;115014;-92
2022/05/01 01:43:43;;;;;;;15.07;11.43;;;12.10;91.50;;;12.73;59.70;99137.09;5000643;28;123438;-92
2022/05/01 01:46:10;;;;;;;15.27;11.70;;;12.10;91.50;;;12.74;59.60;99135.97;4987499;28;123948;-94
2022/05/01 01:48:37;;;;;;;16.03;12.27;;;12.10;91.50;;;12.74;59.61;99134.00;4977048;28;114039;-92
2022/05/01 01:51:08;;;;;;;18.20;13.80;;;12.10;91.50;;;12.76;59.47;99130.91;4973429;28;113708;-93
2022/05/01 01:53:55;;;;;;;15.13;11.50;;;12.10;91.50;;;12.73;59.26;99126.81;4969118;28;123355;-93
2022/05/01 01:56:24;;;;;;;17.50;13.37;;;12.10;91.40;;;12.69;59.47;99125.84;4980228;28;125786;-90
2022/05/01 02:02:32;;;;;;;15.97;11.97;;;12.10;91.40;;;12.66;59.79;99120.94;4968170;28;115050;-91
2022/05/01 02:04:59;;;;;;;16.20;11.73;;;12.10;91.50;;;12.66;59.74;99123.69;4976661;28;123134;-88
2022/05/01 02:07:29;;;;;;;14.53;12.13;;;12.10;91.80;;;12.66;59.66;99118.16;4979177;28;123161;-89
2022/05/01 02:09:57;;;;;;;17.40;13.00;;;12.10;91.40;;;12.64;59.46;99116.84;4977540;28;112961;-90
2022/05/01 02:16:08;;;;;;;19.13;13.83;;;12.10;91.50;;;12.53;59.62;99111.56;4986803;28;125156;-92
2022/05/01 02:18:56;;;;;;;14.57;12.00;;;12.00;91.40;;;12.53;59.64;99110.75;4984324;28;124015;-92
2022/05/01 02:21:36;;;;;;;20.70;15.00;;;12.00;91.50;;;12.52;59.81;99114.63;4984333;28;116143;-92
2022/05/01 02:25:01;;;;;;;23.00;15.70;;;12.00;91.60;;;12.46;59.89;99116.72;4981514;28;115003;-91
2022/05/01 02:32:06;;;;;;;19.43;14.93;;;11.90;91.50;;;12.31;60.12;99112.41;4993519;28;124862;-92
2022/05/01 02:34:33;;;;;;;16.93;13.17;;;11.80;91.50;;;12.27;60.23;99108.63;4994356;28;113707;-92
2022/05/01 02:44:23;;;;;;;18.00;12.23;;;11.70;91.50;;;12.23;60.23;99093.78;4997655;28;124871;-92
2022/05/01 02:55:02;;;;;;;17.00;11.60;;;11.70;91.50;;;12.17;60.25;99086.75;4998557;28;125160;-91
2022/05/01 02:57:28;;;;;;;14.40;11.60;;;11.70;91.50;;;12.20;60.03;99091.66;4995214;28;124315;-92
2022/05/01 03:03:37;;;;;;;15.47;11.97;;;11.70;91.50;;;12.18;60.04;99093.91;4996455;28;115016;-92
2022/05/01 03:09:46;;;;;;;16.73;12.00;;;11.70;91.50;;;12.15;59.83;99091.78;4987248;28;124867;-90
2022/05/01 03:15:54;;;;;;;16.53;11.30;;;11.70;91.60;;;12.20;60.07;99082.50;4986104;28;115098;-91
2022/05/01 03:25:07;;;;;;;20.80;14.00;;;11.70;91.60;;;12.25;60.03;99088.75;4996895;28;115540;-92
2022/05/01 03:27:35;;;;;;;17.80;12.90;;;11.70;91.60;;;12.26;60.10;99095.91;4993235;28;115673;-91
2022/05/01 03:30:58;;;;;;;19.20;13.17;;;11.70;91.60;;;12.27;59.95;99097.53;4989474;28;124594;-92
2022/05/01 03:37:07;;;;;;;21.57;13.20;;;11.70;91.60;;;12.24;59.85;99081.56;4992383;28;114696;-92
2022/05/01 03:43:16;;;;;;;18.30;13.93;;;11.70;91.60;;;12.24;60.10;99081.56;4977421;28;125152;-93
2022/05/01 03:49:25;;;;;;;17.40;11.63;;;11.70;91.60;;;12.27;59.77;99086.47;4973853;28;115266;-92
2022/05/01 03:52:12;;;;;;;19.23;14.33;;;11.70;91.60;;;12.30;59.74;99087.78;4985306;28;114830;-90
2022/05/01 03:55:18;;;;;;;17.90;11.77;;;11.70;91.60;;;12.30;59.75;99101.63;4984810;28;124927;-91
2022/05/01 03:57:44;;;;;;;19.23;13.60;;;11.70;91.60;;;12.32;60.03;99099.38;5022352;28;123259;-94
2022/05/01 04:00:18;;;;;;;15.80;12.70;;;12.50;92.00;;;12.33;60.07;99096.28;4972807;28;114419;-93
2022/05/01 04:10:09;;;;;;;22.40;13.30;;;11.80;91.70;;;12.38;59.96;99096.16;4987637;28;124813;-93
2022/05/01 04:12:42;;;;;;;18.47;13.87;;;11.80;91.70;;;12.37;59.66;99100.06;4980584;28;114054;-91
2022/05/01 04:15:11;;;;;;;22.33;13.03;;;11.80;91.60;;;12.37;59.90;99096.47;4979153;28;113659;-92
2022/05/01 04:17:40;;;;;;;18.43;13.50;;;11.80;91.60;;;12.39;59.60;99096.97;4979881;28;124701;-94
2022/05/01 04:20:26;;;;;;;18.73;11.90;;;11.80;91.50;;;12.41;59.73;99096.63;4982893;28;123450;-93
2022/05/01 04:22:54;;;;;;;17.00;12.53;;;11.80;91.50;;;12.41;59.51;99093.88;4981235;28;116046;-92
2022/05/01 04:25:26;;;;;;;13.27;11.00;;;11.80;91.50;;;12.44;59.51;99084.91;4981175;28;115066;-94
2022/05/01 04:27:58;;;;;;;17.20;11.50;;;11.80;91.50;;;12.45;59.47;99086.56;4983034;28;123462;-93
2022/05/01 04:30:27;;;;;;;16.63;12.93;;;11.80;91.50;;;12.42;59.82;99084.44;4981324;28;123030;-93
2022/05/01 04:33:34;;;;;;;15.23;11.67;;;11.80;91.50;;;12.43;59.62;99094.38;4965891;28;114358;-94
2022/05/01 04:39:42;;;;;;;17.10;11.90;;;11.80;91.40;;;12.37;59.53;99086.19;4931519;28;126449;-94
2022/05/01 04:42:15;;;;;;;14.43;11.03;;;11.80;91.50;;;12.38;59.35;99098.94;4940843;28;124476;-92
2022/05/01 04:48:25;;;;;;;14.20;10.87;;;11.80;91.40;;;12.36;59.47;99112.28;4934751;28;115108;-92
2022/05/01 04:50:52;;;;;;;15.07;11.30;;;11.80;91.50;;;12.37;59.63;99107.56;4945863;28;123588;-93
2022/05/01 04:53:22;;;;;;;16.60;12.17;;;11.80;91.50;;;12.39;59.58;99108.06;4924898;28;122783;-91
2022/05/01 04:55:52;;;;;;;16.83;12.20;;;11.80;91.40;;;12.38;59.77;99106.41;4932252;28;112767;-92
2022/05/01 04:58:23;;;;;;;18.23;11.90;;;11.80;91.40;;;12.38;59.59;99109.19;4927619;28;113478;-93
2022/05/01 05:00:50;;;;;;;21.80;15.23;;;11.90;91.50;;;12.38;59.58;99110.03;4943343;28;123934;-95
2022/05/01 05:03:16;;;;;;;19.63;13.67;;;11.80;91.50;;;12.35;59.44;99116.16;4955121;28;123164;-93
2022/05/01 05:12:29;;;;;;;15.17;12.20;;;11.70;91.50;;;12.33;59.43;99129.53;4959644;28;125171;-92
2022/05/01 05:18:41;;;;;;;16.57;10.83;;;11.80;91.50;;;12.34;59.69;99125.63;4947620;28;116189;-94
2022/05/01 05:21:08;;;;;;;17.13;12.67;;;11.70;91.40;;;12.35;59.91;99127.25;4941829;28;114769;-93
2022/05/01 05:23:55;;;;;;;22.87;15.73;;;12.30;91.80;;;12.37;59.55;99136.06;4939096;28;124427;-92
2022/05/01 05:26:23;;;;;;;20.73;14.63;;;11.80;91.50;;;12.36;59.46;99133.63;4931811;28;122554;-92
2022/05/01 05:33:10;;;;;;;18.03;14.60;;;11.70;91.50;;;12.36;59.54;99134.44;4958877;28;115132;-93
2022/05/01 05:35:37;;;;;;;24.13;18.63;;;11.80;91.50;;;12.32;59.70;99135.38;4985124;28;123776;-94
2022/05/01 05:38:05;;;;;;;24.87;18.90;;;11.70;91.60;;;12.27;59.82;99138.28;4981550;28;123624;-93
2022/05/01 05:41:28;;;;;;;20.77;15.57;;;11.70;91.70;;;12.24;60.24;99134.19;4976710;28;114987;-94
2022/05/01 05:44:32;;;;;;;21.17;16.37;;;11.70;91.70;;;12.25;60.15;99140.53;4988745;28;113970;-93
2022/05/01 05:47:18;;;;;;;18.53;14.03;;;11.70;91.70;;;12.30;59.89;99144.00;4987237;28;124900;-94
2022/05/01 05:49:45;;;;;;;15.83;12.00;;;11.70;91.70;;;12.35;59.74;99148.59;4977282;28;123763;-93
2022/05/01 05:52:12;;;;;;;16.60;12.43;;;11.70;91.70;;;12.37;59.86;99141.63;5009960;28;115790;-92
2022/05/01 05:54:58;;;;;;;15.47;12.13;;;11.70;91.70;;;12.40;59.57;99140.16;4965110;28;112445;-92
2022/05/01 05:58:03;;;;;;;18.00;12.90;;;11.80;91.70;;;12.41;59.81;99135.44;4986388;28;123426;-91
2022/05/01 06:00:31;;;;;;;16.60;12.10;;;11.80;91.60;;;12.42;59.62;99139.88;4987964;28;123283;-91
2022/05/01 06:02:57;;;;;;;20.00;12.80;;;11.80;91.60;;;12.46;59.70;99144.44;4982751;28;114012;-92
2022/05/01 06:05:24;;;;;;;16.90;12.20;;;13.40;92.30;;;12.48;59.50;99144.13;4994254;28;112467;-92
2022/05/01 06:07:51;;;;;;;13.70;11.13;;;11.90;91.70;;;12.51;59.44;99149.03;4974973;28;124087;-91
2022/05/01 06:10:40;;;;;;;15.50;11.70;;;11.90;91.60;;;12.53;59.38;99144.00;4978949;28;123309;-94
2022/05/01 06:13:07;;;;;;;16.03;11.60;;;11.90;91.60;;;12.56;59.48;99146.13;4971947;28;115982;-92
2022/05/01 06:15:37;;;;;;;14.20;11.90;;;11.90;91.60;;;12.59;59.45;99139.94;4974356;28;115803;-92
2022/05/01 06:18:04;;;;;;;15.70;12.30;;;11.90;91.60;;;12.61;59.58;99143.22;4990755;28;121895;-92
2022/05/01 06:20:31;;;;;;;14.03;10.70;;;12.00;91.60;;;12.64;59.15;99142.59;4967652;28;123581;-92
2022/05/01 06:23:00;;;;;;;15.13;11.60;;;12.00;91.60;;;12.67;59.66;99150.28;4970657;28;114744;-92
2022/05/01 06:25:26;;;;;;;14.50;11.37;;;12.00;91.60;;;12.70;59.11;99149.63;4956700;28;111840;-91
2022/05/01 06:27:53;;;;;;;12.10;9.93;;;12.00;91.60;;;12.72;59.10;99141.81;4969346;28;122976;-93
2022/05/01 06:30:20;;;;;;;13.07;10.37;;;12.10;91.50;;;12.74;59.12;99147.06;4974938;28;123254;-92
2022/05/01 06:32:47;;;;;;;14.40;10.90;;;12.10;91.80;;;12.75;59.30;99143.13;4969608;28;113351;-93
2022/05/01 06:35:15;;;;;;;17.30;11.00;;;12.10;91.50;;;12.77;59.19;99147.22;4993609;28;114344;-93
2022/05/01 06:37:43;;;;;;;15.17;10.53;;;12.10;91.50;;;12.79;58.96;99153.28;4965729;28;123431;-94
2022/05/01 06:40:10;;;;;;;17.10;11.70;;;12.10;91.40;;;12.80;59.09;99149.38;4969000;28;124732;-93
2022/05/01 06:42:38;;;;;;;13.37;10.57;;;12.10;91.40;;;12.83;58.95;99150.69;4981457;28;112154;-93
2022/05/01 06:45:05;;;;;;;16.13;12.40;;;11.20;91.00;;;12.82;59.11;99143.50;4967584;28;113409;-94
2022/05/01 06:47:31;;;;;;;15.20;11.03;;;12.20;91.40;;;12.83;59.22;99143.19;4965339;28;123219;-92
2022/05/01 06:49:58;;;;;;;17.13;12.63;;;12.20;91.40;;;12.88;59.09;99149.72;4970726;28;123579;-95
2022/05/01 06:52:25;;;;;;;16.27;12.47;;;12.20;91.60;;;12.93;59.36;99144.06;4968315;28;113978;-94
2022/05/01 06:54:53;;;;;;;14.13;10.73;;;12.20;91.50;;;12.97;58.99;99142.25;4961823;28;113222;-93
2022/05/01 06:57:20;;;;;;;16.77;12.60;;;13.30;92.00;;;13.03;58.97;99149.31;4967458;28;122257;-95
2022/05/01 06:59:46;;;;;;;13.70;11.33;;;12.40;91.60;;;13.05;58.54;99142.28;4966658;28;123807;-94
2022/05/01 07:02:17;;;;;;;14.50;11.97;;;12.40;91.60;;;13.03;58.83;99146.56;4960197;28;114406;-95
2022/05/01 07:04:43;;;;;;;14.50;11.40;;;12.40;91.40;;;13.03;58.82;99152.09;4974896;28;114727;-93
2022/05/01 07:07:10;;;;;;;14.07;11.30;;;12.40;91.30;;;13.03;58.66;99138.22;4969051;28;124564;-93
2022/05/01 07:09:37;;;;;;;14.80;11.70;;;12.40;91.30;;;13.05;58.78;99144.25;4964461;28;123635;-91
2022/05/01 07:12:04;;;;;;;14.13;11.23;;;12.40;91.30;;;13.08;58.54;99151.13;4958899;28;113561;-92
2022/05/01 07:14:30;;;;;;;18.80;11.80;;;12.40;91.30;;;13.08;58.56;99146.38;4961104;28;113050;-94
2022/05/01 07:16:57;;;;;;;15.07;11.07;;;12.40;91.40;;;13.06;58.55;99151.44;4962131;28;123822;-93
2022/05/01 07:19:23;;;;;;;13.40;10.60;;;12.40;91.20;;;13.09;58.50;99153.59;4962324;28;123632;-94
2022/05/01 07:21:51;;;;;;;14.90;10.63;;;13.20;91.50;;;13.13;58.72;99157.34;4961975;28;114617;-94
2022/05/01 07:24:20;;;;;;;11.23;9.93;;;12.50;91.20;;;13.17;58.65;99155.56;4953055;28;114653;-93
2022/05/01 07:26:46;;;;;;;12.20;9.77;;;12.50;91.20;;;13.23;58.46;99156.25;4956914;28;123765;-94
2022/05/01 07:29:13;;;;;;;13.30;10.80;;;12.60;91.30;;;13.28;58.39;99152.53;4955623;28;123954;-93
2022/05/01 07:31:41;;;;;;;11.53;8.80;;;12.80;91.30;;;13.35;58.46;99152.88;4955854;28;113341;-95
2022/05/01 07:34:09;;;;;;;9.53;8.50;;;12.70;91.20;;;13.43;58.24;99160.41;4955324;28;113677;-94
2022/05/01 07:36:35;;;;;;;13.80;10.17;;;12.90;91.30;;;13.46;58.08;99160.59;4959426;28;125199;-93
2022/05/01 07:39:03;;;;;;;13.37;10.60;;;12.70;91.20;;;13.47;58.13;99162.22;4969850;28;124401;-94
2022/05/01 07:41:29;;;;;;;13.93;11.10;;;12.80;91.10;;;13.47;58.02;99153.88;4967223;28;114417;-93
2022/05/01 07:43:56;;;;;;;12.53;9.63;;;12.80;91.10;;;13.50;57.91;99160.75;4985897;28;113254;-93
2022/05/01 07:46:22;;;;;;;11.60;8.77;;;12.80;91.00;;;13.52;57.80;99152.94;4969991;28;123995;-94
2022/05/01 07:48:49;;;;;;;9.40;7.77;;;12.90;91.00;;;13.56;57.94;99151.13;4966686;28;124503;-93
2022/05/01 07:51:17;;;;;;;10.30;8.40;;;12.90;91.00;;;13.62;57.67;99151.78;4983967;28;115182;-95
2022/05/01 07:53:44;;;;;;;14.37;9.87;;;12.90;91.00;;;13.66;57.68;99153.59;4970891;28;112532;-95
2022/05/01 07:56:11;;;;;;;12.27;10.40;;;13.00;90.90;;;13.69;57.41;99150.16;4964909;28;123207;-93
2022/05/01 07:58:37;;;;;;;12.60;9.57;;;13.00;90.80;;;13.71;57.45;99152.63;4965387;28;123570;-94
2022/05/01 08:01:04;;;;;;;11.33;9.13;;;13.00;90.80;;;13.77;57.37;99150.50;4954749;28;112535;-94
2022/05/01 08:06:16;;;;;;;10.30;9.23;;;13.10;90.70;;;13.80;57.20;99150.66;4979644;28;124816;-93
2022/05/01 08:08:43;;;;;;;9.53;8.53;;;13.10;90.70;;;13.85;57.10;99152.47;4967951;28;123846;-93
2022/05/01 08:11:12;;;;;;;10.80;8.57;;;13.10;90.70;;;13.89;57.01;99145.13;4966782;28;113625;-92
2022/05/01 08:13:39;;;;;;;10.40;8.60;;;13.20;90.60;;;13.93;57.03;99151.66;4975415;28;114096;-92
2022/05/01 08:16:06;;;;;;;11.53;9.80;;;13.30;90.60;;;13.95;56.94;99151.34;4969935;28;124412;-92
2022/05/01 08:21:18;;;;;;;12.13;10.30;;;13.30;90.50;;;13.96;56.86;99139.91;4979386;28;114764;-95
2022/05/01 08:23:45;;;;;;;13.27;10.67;;;13.30;90.50;;;14.02;56.69;99137.78;4971401;28;113875;-93
2022/05/01 08:26:13;;;;;;;12.30;10.13;;;13.70;90.70;;;14.07;56.83;99141.19;4984410;28;121735;-93
2022/05/01 08:28:42;;;;;;;14.50;11.23;;;13.40;90.50;;;14.11;56.58;99144.97;4963830;28;124227;-95
2022/05/01 08:31:09;;;;;;;13.33;10.00;;;13.40;90.40;;;14.17;56.78;99144.81;4956355;28;114148;-94
2022/05/01 08:33:37;;;;;;;13.73;11.00;;;13.50;90.40;;;14.22;56.65;99147.41;4969145;28;114139;-94
2022/05/01 08:36:06;;;;;;;11.83;9.83;;;13.60;90.40;;;14.30;56.28;99138.25;4967760;28;124364;-94
2022/05/01 08:38:35;;;;;;;9.70;8.47;;;13.60;90.30;;;14.36;56.17;99142.50;4987203;28;122539;-93
2022/05/01 08:41:03;;;;;;;10.40;8.83;;;13.70;90.30;;;14.43;56.00;99136.44;4998863;28;115325;-95
2022/05/01 08:43:31;;;;;;;9.63;7.80;;;14.70;90.60;;;14.49;55.97;99144.28;4961044;28;114026;-95
2022/05/01 08:46:10;;;;;;;8.20;7.30;;;13.80;90.10;;;14.53;55.59;99134.16;4984364;28;124369;-94
2022/05/01 08:49:03;;;;;;;10.20;7.37;;;13.80;90.00;;;14.56;55.64;99135.44;4961262;28;123077;-93
2022/05/01 08:51:41;;;;;;;14.73;10.93;;;13.90;89.70;;;14.57;55.17;99135.13;4957778;28;112402;-96
2022/05/01 08:54:16;;;;;;;20.13;13.90;;;13.90;89.10;;;14.56;54.89;99144.63;4964119;28;113248;-94
2022/05/01 08:56:44;;;;;;;15.43;12.23;;;13.90;88.80;;;14.55;54.97;99131.84;4974089;28;123853;-94
2022/05/01 08:59:17;;;;;;;13.37;10.07;;;13.90;88.90;;;14.58;54.81;99133.97;4963259;28;122891;-94
2022/05/01 09:02:03;;;;;;;12.20;10.43;;;14.00;89.00;;;14.63;54.81;99132.16;4977672;28;113553;-94
2022/05/01 09:05:11;;;;;;;15.57;12.23;;;14.00;88.60;;;14.57;54.47;99135.13;5013318;28;114393;-95
2022/05/01 09:07:39;;;;;;;13.23;10.13;;;14.00;88.20;;;14.60;54.72;99138.41;4995347;28;122506;-95
2022/05/01 09:10:08;;;;;;;15.00;12.17;;;14.00;88.30;;;14.65;54.30;99125.13;4979897;28;123044;-95
2022/05/01 09:12:53;;;;;;;11.30;9.30;;;14.00;88.00;;;14.68;54.25;99126.44;4974787;28;113761;-94
2022/05/01 09:15:45;;;;;;;12.20;9.87;;;14.10;88.00;;;14.71;54.42;99125.75;4967711;28;113729;-95
2022/05/01 09:18:50;;;;;;;11.90;9.10;;;14.10;87.90;;;14.78;54.25;99126.06;5004676;28;123255;-95
2022/05/01 09:21:54;;;;;;;12.47;10.20;;;14.10;87.90;;;14.83;54.15;99123.13;4977065;28;122059;-95
2022/05/01 09:24:30;;;;;;;11.23;9.60;;;14.20;87.80;;;14.91;53.81;99129.78;4967727;28;113899;-94
2022/05/01 09:26:58;;;;;;;11.80;9.17;;;14.60;87.70;;;14.93;53.72;99128.28;4974351;28;113180;-96
2022/05/01 09:29:32;;;;;;;11.57;9.60;;;14.30;87.20;;;15.00;53.51;99125.81;4986307;28;122251;-95
2022/05/01 09:32:01;;;;;;;9.93;8.00;;;14.40;87.10;;;15.09;53.41;99124.97;4971739;28;123015;-96
2022/05/01 09:34:31;;;;;;;17.30;10.63;;;14.30;86.80;;;15.13;52.65;99121.19;4975218;28;114660;-94
2022/05/01 09:37:03;;;;;;;14.80;10.70;;;14.40;86.20;;;15.15;52.52;99130.03;4978460;28;115797;-92
2022/05/01 09:39:32;;;;;;;15.20;11.67;;;14.50;86.00;;;15.16;52.44;99126.06;4954912;28;123351;-93
2022/05/01 09:42:21;;;;;;;14.70;11.73;;;14.50;85.80;;;15.16;52.10;99119.69;4961921;28;122763;-95
2022/05/01 09:45:09;;;;;;;11.70;9.60;;;14.50;85.00;;;15.16;52.35;99131.63;4973128;28;114377;-95
2022/05/01 09:47:45;;;;;;;9.83;8.67;;;14.60;85.30;;;15.25;52.38;99128.81;4971186;28;113541;-95
2022/05/01 09:50:14;;;;;;;10.27;7.30;;;14.60;85.50;;;15.36;52.30;99134.81;4968362;28;124191;-94
2022/05/01 09:53:01;;;;;;;12.50;9.53;;;14.70;85.60;;;15.49;51.94;99132.94;4967781;28;121761;-95
2022/05/01 09:55:30;;;;;;;9.43;7.73;;;14.80;85.20;;;15.58;51.64;99131.75;4968829;28;114640;-95
2022/05/01 09:58:12;;;;;;;10.00;7.77;;;14.90;85.20;;;15.71;51.58;99129.88;4989746;28;112907;-95
2022/05/01 10:00:46;;;;;;;12.00;7.80;;;15.00;84.90;;;15.80;51.23;99116.69;4945921;28;123312;-95
2022/05/01 10:03:28;;;;;;;10.37;8.27;;;15.10;84.70;;;15.86;50.55;99120.91;4961207;28;123439;-94
2022/05/01 10:05:58;;;;;;;13.23;10.00;;;15.20;83.40;;;15.85;50.42;99118.44;4967370;28;114494;-94
2022/05/01 10:08:25;;;;;;;10.37;9.07;;;15.20;82.90;;;15.89;50.25;99105.47;4959064;28;113645;-95
2022/05/01 10:10:59;;;;;;;7.57;6.77;;;15.50;83.30;;;16.00;50.51;99117.03;4963421;28;124254;-93
2022/05/01 10:13:28;;;;;;;11.73;8.23;;;15.30;83.30;;;16.07;49.87;99115.34;4958179;28;123071;-94
2022/05/01 10:15:55;;;;;;;11.77;8.77;;;15.40;82.70;;;16.08;49.67;99103.00;4972540;28;113775;-95
2022/05/01 10:18:24;;;;;;;12.23;8.07;;;15.50;82.10;;;16.06;49.63;99102.53;4957187;28;113481;-94
2022/05/01 10:20:51;;;;;;;8.77;7.60;;;15.50;81.80;;;16.08;49.66;99097.44;4970315;28;124032;-94
2022/05/01 10:23:18;;;;;;;12.23;9.90;;;15.50;81.70;;;16.12;49.32;99103.16;4992798;28;123762;-94
2022/05/01 10:25:50;;;;;;;9.90;7.93;;;15.50;81.10;;;16.16;49.24;99101.31;4959322;28;114393;-92
2022/05/01 10:28:50;;;;;;;9.23;7.33;;;15.60;81.30;;;16.23;49.24;99096.00;4971913;28;115223;-94
2022/05/01 10:32:21;;;;;;;7.53;6.20;;;15.60;81.30;;;16.29;49.00;99094.63;4972007;28;122848;-93
2022/05/01 10:35:09;;;;;;;6.67;5.93;;;15.70;81.30;;;16.40;49.17;99099.78;4930347;28;123638;-92
2022/05/01 10:37:47;;;;;;;6.70;5.97;;;15.80;81.50;;;16.50;49.02;99093.75;4916155;28;113716;-92
2022/05/01 10:40:14;;;;;;;6.57;5.87;;;15.80;81.30;;;16.56;48.93;99086.78;4935241;28;113238;-93
2022/05/01 10:43:29;;;;;;;6.60;5.87;;;16.10;81.40;;;16.63;48.54;99084.25;4920383;28;124325;-93
2022/05/01 10:46:02;;;;;;;7.53;6.10;;;16.00;80.60;;;16.70;48.49;99084.50;4932036;28;123489;-91
2022/05/01 10:48:39;;;;;;;7.40;6.47;;;16.00;80.80;;;16.78;48.63;99080.81;4906101;28;114146;-89
2022/05/01 10:51:49;;;;;;;7.20;5.90;;;16.10;80.80;;;16.88;48.31;99076.75;4912341;28;113313;-90
2022/05/01 10:54:19;;;;;;;6.77;5.27;;;16.20;80.70;;;16.95;48.18;99077.00;4925574;28;123081;-91
2022/05/01 10:57:07;;;;;;;10.27;9.10;;;15.40;79.80;;;16.94;47.33;99068.97;4932343;28;124294;-92
2022/05/01 10:59:38;;;;;;;10.60;8.67;;;16.30;79.00;;;16.90;47.25;99070.81;4934507;28;114443;-91
2022/05/01 11:02:17;;;;;;;10.17;7.60;;;16.50;78.80;;;16.87;47.62;99068.72;4911634;28;114061;-90
2022/05/01 11:04:46;;;;;;;6.67;5.97;;;16.30;78.80;;;16.91;47.42;99069.66;4957415;28;123883;-90
2022/05/01 11:07:17;;;;;;;6.53;5.83;;;16.30;79.20;;;16.98;47.31;99059.56;4971783;28;123045;-91
2022/05/01 11:09:47;;;;;;;7.17;5.97;;;16.40;79.10;;;17.10;47.29;99058.72;4970771;28;114331;-91
2022/05/01 11:12:17;;;;;;;6.00;5.30;;;16.50;79.00;;;17.18;47.16;99062.56;4971599;28;113339;-93
2022/05/01 11:14:53;;;;;;;6.77;5.17;;;16.50;79.50;;;17.25;47.04;99060.00;4970678;28;123103;-92
2022/05/01 11:17:44;;;;;;;6.13;5.10;;;16.60;78.60;;;17.29;46.67;99062.91;4969317;28;123887;-92
2022/05/01 11:20:21;;;;;;;5.80;5.10;;;16.70;78.40;;;17.35;46.95;99053.13;4989995;28;114760;-92
2022/05/01 11:22:48;;;;;;;5.33;4.83;;;16.70;78.30;;;17.41;46.64;99052.53;4961558;28;114700;-90
2022/05/01 11:25:40;;;;;;;4.30;3.90;;;16.80;78.20;;;17.46;46.57;99059.84;4953928;28;124309;-90
2022/05/01 11:28:07;;;;;;;7.27;5.20;;;16.80;77.80;;;17.53;46.27;99054.47;4953292;28;123865;-90
2022/05/01 11:30:37;;;;;;;4.73;4.33;;;16.90;77.70;;;17.55;46.17;99060.53;4959221;28;114845;-92
2022/05/01 11:33:11;;;;;;;7.07;5.13;;;16.90;77.20;;;17.55;45.90;99049.38;4948561;28;114279;-90
2022/05/01 11:35:56;;;;;;;7.27;5.93;;;16.90;76.90;;;17.54;45.38;99053.31;4964157;28;123988;-90
2022/05/01 11:38:31;;;;;;;11.70;8.80;;;17.00;75.70;;;17.51;44.91;99054.00;4969336;28;123833;-92
2022/05/01 11:41:00;;;;;;;8.70;7.40;;;17.00;75.10;;;17.53;45.22;99050.88;4967828;28;113516;-91
2022/05/01 11:43:29;;;;;;;8.80;6.67;;;17.00;75.50;;;17.60;45.00;99046.31;5000104;28;113720;-90
2022/05/01 11:46:01;;;;;;;6.17;5.50;;;17.00;75.40;;;17.73;44.94;99049.06;4973836;28;124148;-90
2022/05/01 11:48:29;;;;;;;6.13;5.50;;;17.10;75.60;;;17.86;45.06;99051.50;4988167;28;123462;-90
2022/05/01 11:51:01;;;;;;;5.73;5.23;;;17.20;75.40;;;17.91;44.36;99046.84;4987681;28;96681;-91
2022/05/01 11:53:33;;;;;;;6.00;5.40;;;17.20;75.00;;;17.94;44.32;99038.53;4969009;28;114411;-92
2022/05/01 12:04:37;;;;;;;6.87;5.70;;;17.40;73.60;;;17.98;44.05;99039.47;4965302;28;115622;-92
2022/05/01 12:07:12;;;;;;;6.17;5.53;;;17.40;73.60;;;18.04;44.01;99034.44;4951852;28;124844;-93
2022/05/01 12:09:40;;;;;;;7.53;6.23;;;17.50;73.70;;;18.10;43.87;99031.00;4984467;28;124242;-92
2022/05/01 12:12:11;;;;;;;7.17;5.80;;;17.50;73.40;;;18.15;43.63;99031.94;4962644;28;115106;-88
2022/05/01 12:14:39;;;;;;;9.00;6.37;;;17.50;73.20;;;18.18;43.56;99042.41;4957000;28;115070;-94
2022/05/01 12:17:11;;;;;;;6.40;5.70;;;17.60;73.00;;;18.18;43.55;99025.63;4969602;28;123878;-92
2022/05/01 12:19:43;;;;;;;10.47;7.67;;;17.60;73.00;;;18.17;43.30;99030.41;4966538;28;122589;-94
2022/05/01 12:22:14;;;;;;;8.57;7.10;;;17.60;72.50;;;18.10;43.24;99030.19;4995669;28;113773;-92
2022/05/01 12:24:43;;;;;;;10.87;8.87;;;17.50;72.00;;;18.04;42.90;99026.03;4974175;28;113295;-92